createdAt,value
2023-01-03T00:02:00.692Z,1.96
2023-01-03T00:06:54.029Z,1.93
2023-01-03T00:12:06.311Z,1.89
2023-01-03T00:16:59.652Z,1.83
2023-01-03T00:21:51.592Z,1.81
2023-01-03T00:26:43.997Z,1.77
2023-01-03T00:31:36.874Z,1.72
2023-01-03T00:36:28.651Z,1.67
2023-01-03T00:41:20.833Z,1.69
2023-01-03T00:46:14.793Z,1.73
2023-01-03T00:51:11.446Z,1.71
2023-01-03T00:56:09.466Z,1.67
2023-01-03T01:01:18.831Z,1.60
2023-01-03T01:06:14.336Z,1.60
2023-01-03T01:11:06.324Z,1.60
2023-01-03T01:16:06.092Z,1.59
2023-01-03T01:20:58.114Z,1.62
2023-01-03T01:25:49.894Z,1.57
2023-01-03T01:30:41.557Z,1.54
2023-01-03T01:35:33.354Z,1.49
2023-01-03T01:40:25.154Z,1.43
2023-01-03T01:45:16.951Z,1.37
2023-01-03T01:50:40.019Z,1.32
2023-01-03T01:55:37.216Z,1.29
2023-01-03T02:00:30.262Z,1.27
2023-01-03T02:05:23.345Z,1.24
2023-01-03T02:10:15.317Z,1.25
2023-01-03T02:15:30.819Z,1.30
2023-01-03T02:20:54.954Z,1.34
2023-01-03T02:26:05.411Z,1.37
2023-01-03T02:30:57.019Z,1.40
2023-01-03T02:36:06.057Z,1.46
2023-01-03T02:41:04.600Z,1.58
2023-01-03T02:46:09.296Z,1.67
2023-01-03T02:51:05.359Z,1.75
2023-01-03T02:56:02.092Z,1.83
2023-01-03T03:00:56.458Z,1.91
2023-01-03T03:06:09.298Z,1.97
2023-01-03T03:11:19.543Z,2.02
2023-01-03T03:16:49.439Z,2.07
2023-01-03T03:21:59.638Z,2.12
2023-01-03T03:26:54.030Z,2.18
2023-01-03T03:31:50.413Z,2.27
2023-01-03T03:37:05.169Z,2.33
2023-01-03T03:42:25.313Z,2.36
2023-01-03T03:47:36.172Z,2.40
2023-01-03T03:52:30.721Z,2.44
2023-01-03T03:57:33.987Z,2.40
2023-01-03T04:02:29.341Z,2.46
2023-01-03T04:07:21.215Z,2.51
2023-01-03T04:12:12.879Z,2.54
2023-01-03T04:17:04.560Z,2.56
2023-01-03T04:21:56.343Z,2.57
2023-01-03T04:26:48.528Z,2.56
2023-01-03T04:31:40.278Z,2.61
2023-01-03T04:36:31.954Z,2.64
2023-01-03T04:41:23.581Z,2.68
2023-01-03T04:46:15.417Z,2.76
2023-01-03T04:51:07.160Z,2.84
2023-01-03T04:55:58.953Z,2.93
2023-01-03T05:00:50.753Z,2.99
2023-01-03T05:05:42.723Z,3.01
2023-01-03T05:10:35.044Z,3.03
2023-01-03T05:15:31.011Z,3.07
2023-01-03T05:20:42.120Z,3.11
2023-01-03T05:25:51.844Z,3.17
2023-01-03T05:30:43.588Z,3.23
2023-01-03T05:35:35.265Z,3.28
2023-01-03T05:40:27.055Z,3.35
2023-01-03T05:45:19.548Z,3.46
2023-01-03T05:50:11.335Z,3.54
2023-01-03T05:55:02.998Z,3.64
2023-01-03T05:59:54.852Z,3.73
2023-01-03T06:04:46.573Z,3.80
2023-01-03T06:09:38.336Z,3.88
2023-01-03T06:14:29.984Z,3.98
2023-01-03T06:19:21.680Z,4.05
2023-01-03T06:24:13.368Z,4.14
2023-01-03T06:29:05.805Z,4.20
2023-01-03T06:33:57.440Z,4.23
2023-01-03T06:38:49.480Z,4.29
2023-01-03T06:43:42.067Z,4.37
2023-01-03T06:48:52.496Z,4.43
2023-01-03T06:53:44.209Z,4.45
2023-01-03T06:58:36.793Z,4.52
2023-01-03T07:03:28.542Z,4.56
2023-01-03T07:08:20.886Z,4.61
2023-01-03T07:13:31.512Z,4.65
2023-01-03T07:18:23.316Z,4.75
2023-01-03T07:23:15.178Z,4.84
2023-01-03T07:28:11.576Z,4.91
2023-01-03T07:33:03.283Z,4.96
2023-01-03T07:37:55.063Z,5.01
2023-01-03T07:43:05.307Z,5.09
2023-01-03T07:47:57.266Z,5.15
2023-01-03T07:52:48.893Z,5.18
2023-01-03T07:57:40.554Z,5.25
2023-01-03T08:02:32.377Z,5.30
2023-01-03T08:07:24.436Z,5.33
2023-01-03T08:12:34.776Z,5.35
2023-01-03T08:17:27.699Z,5.42
2023-01-03T08:22:19.411Z,5.48
2023-01-03T08:27:11.151Z,5.54
2023-01-03T08:32:03.153Z,5.56
2023-01-03T08:37:03.213Z,5.64
2023-01-03T08:42:05.017Z,5.69
2023-01-03T08:46:59.459Z,5.76
2023-01-03T08:51:51.298Z,5.80
2023-01-03T08:56:43.264Z,5.89
2023-01-03T09:01:35.217Z,5.90
2023-01-03T09:06:26.934Z,6.00
2023-01-03T09:11:18.829Z,6.05
2023-01-03T09:16:13.285Z,6.13
2023-01-03T09:21:05.613Z,6.20
2023-01-03T09:25:57.582Z,6.24
2023-01-03T09:30:49.410Z,6.29
2023-01-03T09:35:41.214Z,6.36
2023-01-03T09:40:38.495Z,6.44
2023-01-03T09:45:34.980Z,6.49
2023-01-03T09:50:50.805Z,6.56
2023-01-03T09:56:14.573Z,6.66
2023-01-03T10:01:51.422Z,6.74
2023-01-03T10:07:24.654Z,6.82
2023-01-03T10:12:40.607Z,6.93
2023-01-03T10:18:23.433Z,7.03
2023-01-03T10:23:16.555Z,7.11
2023-01-03T10:28:26.765Z,7.19
2023-01-03T10:33:29.088Z,7.25
2023-01-03T10:38:23.156Z,7.31
2023-01-03T10:43:33.473Z,7.35
2023-01-03T10:48:26.845Z,7.39
2023-01-03T10:53:22.153Z,7.41
2023-01-03T10:58:28.035Z,7.47
2023-01-03T11:03:26.128Z,7.53
2023-01-03T11:08:23.813Z,7.59
2023-01-03T11:13:38.963Z,7.64
2023-01-03T11:18:31.704Z,7.69
2023-01-03T11:23:55.499Z,7.78
2023-01-03T11:29:05.563Z,7.86
2023-01-03T11:34:14.259Z,7.91
2023-01-03T11:39:35.320Z,7.98
2023-01-03T11:44:26.957Z,8.02
2023-01-03T11:49:33.766Z,8.04
2023-01-03T11:54:31.407Z,8.12
2023-01-03T11:59:58.594Z,8.18
2023-01-03T12:05:22.484Z,8.24
2023-01-03T12:10:30.119Z,8.28
2023-01-03T12:15:25.189Z,8.33
2023-01-03T12:20:41.001Z,8.38
2023-01-03T12:25:42.559Z,8.45
2023-01-03T12:30:41.197Z,8.50
2023-01-03T12:35:48.013Z,8.55
2023-01-03T12:40:51.255Z,8.62
2023-01-03T12:46:01.197Z,8.63
2023-01-03T12:50:55.256Z,8.65
2023-01-03T12:56:24.485Z,8.66
2023-01-03T13:01:34.837Z,8.67
2023-01-03T13:06:35.842Z,8.68
2023-01-03T13:11:27.474Z,8.70
2023-01-03T13:16:40.031Z,8.71
2023-01-03T13:21:53.126Z,8.73
2023-01-03T13:27:20.685Z,8.75
2023-01-03T13:32:18.204Z,8.76
2023-01-03T13:37:16.403Z,8.77
2023-01-03T13:42:19.152Z,8.77
2023-01-03T13:47:38.386Z,8.83
2023-01-03T13:52:38.814Z,8.83
2023-01-03T13:57:51.501Z,8.84
2023-01-03T14:03:00.454Z,8.87
2023-01-03T14:08:05.567Z,8.88
2023-01-03T14:13:06.562Z,8.92
2023-01-03T14:18:02.367Z,8.93
2023-01-03T14:22:56.088Z,8.96
2023-01-03T14:27:48.013Z,9.01
2023-01-03T14:32:40.107Z,9.02
2023-01-03T14:37:34.974Z,9.05
2023-01-03T14:42:27.339Z,9.06
2023-01-03T14:47:19.429Z,9.11
2023-01-03T14:52:34.144Z,9.14
2023-01-03T14:57:28.254Z,9.17
2023-01-03T15:02:20.918Z,9.19
2023-01-03T15:07:31.525Z,9.21
2023-01-03T15:12:23.325Z,9.24
2023-01-03T15:17:16.798Z,9.26
2023-01-03T15:22:18.942Z,9.26
2023-01-03T15:27:33.108Z,9.30
2023-01-03T15:32:24.931Z,9.30
2023-01-03T15:37:24.332Z,9.30
2023-01-03T15:42:50.186Z,9.28
2023-01-03T15:47:49.074Z,9.32
2023-01-03T15:52:41.223Z,9.31
2023-01-03T15:57:33.625Z,9.31
2023-01-03T16:02:26.103Z,9.29
2023-01-03T16:07:18.507Z,9.30
2023-01-03T16:12:16.086Z,9.30
2023-01-03T16:17:17.073Z,9.30
2023-01-03T16:27:26.051Z,9.31
2023-01-03T16:32:22.717Z,9.32
2023-01-03T16:37:14.556Z,9.35
2023-01-03T16:42:15.481Z,9.34
2023-01-03T16:47:15.875Z,9.39
2023-01-03T16:52:07.542Z,9.39
2023-01-03T16:56:59.212Z,9.42
2023-01-03T17:01:51.789Z,9.44
2023-01-03T17:06:44.945Z,9.48
2023-01-03T17:11:38.034Z,9.47
2023-01-03T17:16:31.960Z,9.52
2023-01-03T17:21:28.678Z,9.54
2023-01-03T17:26:22.785Z,9.57
2023-01-03T17:31:16.673Z,9.60
2023-01-03T17:36:34.671Z,9.63
2023-01-03T17:41:27.143Z,9.64
2023-01-03T17:46:38.718Z,9.66
2023-01-03T17:51:30.573Z,9.67
2023-01-03T17:56:22.266Z,9.68
2023-01-03T18:01:15.292Z,9.71
2023-01-03T18:06:21.289Z,9.70
2023-01-03T18:11:17.472Z,9.73
2023-01-03T18:16:15.708Z,9.76
2023-01-03T18:21:25.215Z,9.77
2023-01-03T18:26:17.296Z,9.79
2023-01-03T18:31:15.840Z,9.80
2023-01-03T18:36:19.649Z,9.82
2023-01-03T18:41:22.020Z,9.85
2023-01-03T18:46:15.699Z,9.85
2023-01-03T18:51:13.255Z,9.88
2023-01-03T18:56:05.014Z,9.91
2023-01-03T19:00:56.614Z,9.92
2023-01-03T19:05:49.404Z,9.93
2023-01-03T19:10:41.047Z,9.95
2023-01-03T19:15:32.692Z,9.96
2023-01-03T19:20:27.036Z,10.00
2023-01-03T19:25:29.029Z,10.04
2023-01-03T19:30:31.843Z,10.04
2023-01-03T19:35:27.645Z,10.07
2023-01-03T19:40:23.003Z,10.09
2023-01-03T19:45:21.523Z,10.10
2023-01-03T19:50:28.236Z,10.13
2023-01-03T19:55:22.753Z,10.18
2023-01-03T20:00:31.867Z,10.23
2023-01-03T20:05:35.127Z,10.25
2023-01-03T20:10:27.480Z,10.33
2023-01-03T20:15:28.887Z,10.40
2023-01-03T20:20:21.759Z,10.44
2023-01-03T20:25:34.479Z,10.48
2023-01-03T20:30:28.953Z,10.54
2023-01-03T20:40:35.408Z,10.63
2023-01-03T20:45:27.192Z,10.64
2023-01-03T20:50:22.046Z,10.69
2023-01-03T20:55:16.738Z,10.72
2023-01-03T21:00:21.048Z,10.74
2023-01-03T21:05:12.709Z,10.75
2023-01-03T21:10:05.010Z,10.78
2023-01-03T21:14:56.663Z,10.81
2023-01-03T21:19:48.447Z,10.82
2023-01-03T21:24:42.763Z,10.84
2023-01-03T21:29:37.681Z,10.86
2023-01-03T21:34:30.673Z,10.86
2023-01-03T21:39:22.445Z,10.89
2023-01-03T21:44:14.113Z,10.87
2023-01-03T21:49:05.813Z,10.85
2023-01-03T21:53:57.583Z,10.88
2023-01-03T21:58:49.324Z,10.89
2023-01-03T22:03:59.766Z,10.88
2023-01-03T22:08:51.603Z,10.89
2023-01-03T22:13:43.342Z,10.90
2023-01-03T22:18:35.419Z,10.91
2023-01-03T22:23:27.174Z,10.90
2023-01-03T22:28:18.809Z,10.93
2023-01-03T22:33:10.655Z,10.95
2023-01-03T22:38:02.397Z,10.98
2023-01-03T22:42:54.839Z,10.99
2023-01-03T22:47:46.572Z,11.00
2023-01-03T22:52:39.662Z,11.04
2023-01-03T22:57:31.356Z,11.05
2023-01-03T23:02:28.542Z,11.04
2023-01-03T23:07:20.864Z,11.07
2023-01-03T23:12:31.216Z,11.06
2023-01-03T23:17:41.551Z,11.05
2023-01-03T23:22:33.126Z,11.06
2023-01-03T23:27:27.516Z,11.08
2023-01-03T23:32:19.246Z,11.06
2023-01-03T23:37:11.127Z,11.11
2023-01-03T23:42:02.962Z,11.11
2023-01-03T23:46:54.645Z,11.12
2023-01-03T23:51:46.298Z,11.16
2023-01-03T23:56:38.240Z,11.17
